Time;durP1;ratioP1;P1;durP2;ratioP2;P2;SDS_P1;SDS_P2;PMS_P1;PMS_P2;Temp;Humidity;BMP_temperature;BMP_pressure;BME280_temperature;BME280_humidity;BME280_pressure;Samples;Min_cycle;Max_cycle;Signal;HPM_P1;HPM_P2
2022/07/23 00:02:21;;;;;;;5.57;5.03;;;;;;;15.84;92.64;101737.03;5079783;28;20118;-83
2022/07/23 00:04:46;;;;;;;6.80;5.03;;;;;;;15.79;92.29;101726.75;5060696;28;20055;-82
2022/07/23 00:07:12;;;;;;;10.20;5.60;;;;;;;15.77;92.29;101714.38;5079376;28;20036;-83
2022/07/23 00:09:37;;;;;;;9.30;5.37;;;;;;;15.72;92.96;101728.72;5078762;28;20275;-83
2022/07/23 00:12:03;;;;;;;9.27;5.00;;;;;;;15.66;92.91;101735.91;5079543;28;20166;-82
2022/07/23 00:14:28;;;;;;;8.53;5.33;;;;;;;15.56;93.62;101749.25;5079336;28;20081;-82
2022/07/23 00:16:53;;;;;;;7.43;5.13;;;;;;;15.56;93.94;101740.19;5079909;28;20637;-82
2022/07/23 00:19:19;;;;;;;7.57;5.17;;;;;;;15.50;93.75;101736.47;5079888;28;20056;-83
2022/07/23 00:21:44;;;;;;;7.23;4.90;;;;;;;15.39;93.95;101732.56;5079521;28;20032;-82
2022/07/23 00:24:10;;;;;;;7.40;4.73;;;;;;;15.46;93.74;101736.09;5071204;28;20035;-83
2022/07/23 00:26:35;;;;;;;7.37;5.20;;;;;;;15.37;93.50;101737.41;5079905;28;20068;-83
2022/07/23 00:29:00;;;;;;;6.57;5.20;;;;;;;15.41;93.88;101741.38;5060611;28;20027;-82
2022/07/23 00:31:27;;;;;;;7.40;5.33;;;;;;;15.41;94.22;101733.19;5078931;28;20032;-84
2022/07/23 00:33:56;;;;;;;6.93;5.00;;;;;;;15.32;93.89;101724.41;5079505;28;20150;-82
2022/07/23 00:36:23;;;;;;;8.60;4.80;;;;;;;15.23;93.56;101731.22;5078714;28;21417;-81
2022/07/23 00:38:49;;;;;;;7.27;5.00;;;;;;;15.15;94.17;101721.41;5079204;28;20032;-82
2022/07/23 00:41:14;;;;;;;7.27;4.90;;;;;;;15.15;93.72;101724.13;5077934;28;20058;-83
2022/07/23 00:43:39;;;;;;;6.27;4.80;;;;;;;15.13;93.86;101737.16;5078751;28;20043;-82
2022/07/23 00:46:04;;;;;;;7.17;4.93;;;;;;;15.01;93.95;101728.00;5079163;28;20119;-82
2022/07/23 00:48:30;;;;;;;7.53;5.43;;;;;;;14.99;94.98;101732.88;5077908;28;20058;-81
2022/07/23 00:50:56;;;;;;;7.50;5.53;;;;;;;14.86;94.83;101720.13;5059228;28;20027;-82
2022/07/23 00:53:21;;;;;;;8.30;5.37;;;;;;;14.75;94.86;101724.38;5078988;28;20115;-81
2022/07/23 00:55:47;;;;;;;6.27;5.10;;;;;;;14.75;95.26;101734.47;5060736;28;20040;-81
2022/07/23 00:58:13;;;;;;;8.03;5.07;;;;;;;14.78;95.60;101734.03;5077703;28;20040;-82
2022/07/23 01:00:39;;;;;;;5.80;4.83;;;;;;;14.74;95.50;101725.47;5078892;28;20036;-81
2022/07/23 01:03:04;;;;;;;7.37;5.20;;;;;;;14.73;95.33;101733.81;5079593;28;20036;-81
2022/07/23 01:05:29;;;;;;;10.27;6.40;;;;;;;14.59;95.77;101730.31;5078019;28;20062;-82
2022/07/23 01:07:55;;;;;;;9.83;5.80;;;;;;;14.58;95.92;101729.47;5060506;28;20323;-81
2022/07/23 01:10:32;;;;;;;6.97;5.57;;;;;;;14.49;96.42;101711.69;5078685;28;20039;-81
2022/07/23 01:13:00;;;;;;;9.33;6.13;;;;;;;14.45;96.54;101719.47;5078902;28;20071;-81
2022/07/23 01:15:25;;;;;;;9.27;5.77;;;;;;;14.52;96.60;101719.44;5078058;28;20051;-83
2022/07/23 01:17:50;;;;;;;6.70;5.60;;;;;;;14.44;96.57;101716.94;5079294;28;20360;-82
2022/07/23 01:20:16;;;;;;;6.83;5.37;;;;;;;14.45;96.50;101716.72;5078888;28;20036;-84
2022/07/23 01:22:42;;;;;;;7.97;5.90;;;;;;;14.30;96.67;101717.00;5077265;28;20855;-83
2022/07/23 01:25:07;;;;;;;8.10;6.10;;;;;;;14.13;97.38;101721.25;5058905;28;20527;-82
2022/07/23 01:27:33;;;;;;;7.67;6.30;;;;;;;14.26;97.65;101720.38;5077977;28;20126;-82
2022/07/23 01:30:00;;;;;;;8.57;5.93;;;;;;;14.22;97.56;101716.41;5078095;28;20032;-82
2022/07/23 01:32:25;;;;;;;10.43;6.53;;;;;;;14.27;97.47;101722.88;5060033;28;21360;-84
2022/07/23 01:34:50;;;;;;;9.40;6.03;;;;;;;14.22;97.47;101711.78;5078254;28;20491;-82
2022/07/23 01:37:16;;;;;;;8.73;5.70;;;;;;;14.20;97.24;101716.63;5077921;28;20494;-81
2022/07/23 01:39:41;;;;;;;8.87;6.00;;;;;;;14.18;97.04;101714.13;5069996;28;20040;-82
2022/07/23 01:42:06;;;;;;;7.27;5.93;;;;;;;14.14;96.84;101710.16;5078109;28;20138;-81
2022/07/23 01:44:32;;;;;;;7.60;5.97;;;;;;;14.15;96.88;101713.72;5077721;28;21542;-82
2022/07/23 01:46:57;;;;;;;7.73;5.77;;;;;;;14.16;96.77;101713.50;5078371;28;20044;-81
2022/07/23 01:49:23;;;;;;;8.03;5.80;;;;;;;14.13;96.72;101715.78;5078358;28;20088;-81
2022/07/23 01:52:00;;;;;;;6.53;5.70;;;;;;;14.15;96.45;101713.72;5054460;28;20093;-81
2022/07/23 01:54:33;;;;;;;8.57;6.07;;;;;;;14.07;96.70;101717.50;5078357;28;20048;-82
2022/07/23 01:57:00;;;;;;;7.30;6.10;;;;;;;13.94;96.27;101707.47;5077422;28;20369;-81
2022/07/23 01:59:26;;;;;;;6.13;5.07;;;;;;;14.01;96.89;101723.81;5058896;28;20035;-84
2022/07/23 02:01:52;;;;;;;10.03;5.60;;;;;;;14.00;96.57;101719.41;5077890;28;20103;-82
2022/07/23 02:04:18;;;;;;;7.93;5.70;;;;;;;13.91;96.71;101709.78;5081301;28;20492;-81
2022/07/23 02:06:44;;;;;;;7.07;5.57;;;;;;;13.84;96.71;101716.09;5083486;28;20711;-81
2022/07/23 02:09:09;;;;;;;7.57;5.90;;;;;;;13.89;97.36;101712.72;5093478;28;20431;-81
2022/07/23 02:11:34;;;;;;;9.80;5.80;;;;;;;13.93;97.41;101707.69;5093408;28;20099;-81
2022/07/23 02:14:00;;;;;;;7.03;6.10;;;;;;;13.88;97.07;101702.88;5093525;28;20558;-81
2022/07/23 02:16:25;;;;;;;8.40;5.90;;;;;;;13.83;96.90;101706.25;5074931;28;20032;-80
2022/07/23 02:18:51;;;;;;;6.80;6.03;;;;;;;13.77;96.67;101700.81;5075902;28;20058;-81
2022/07/23 02:21:16;;;;;;;7.73;5.77;;;;;;;13.76;97.01;101696.41;5075305;28;20028;-81
2022/07/23 02:23:41;;;;;;;7.07;6.20;;;;;;;13.72;97.05;101704.19;5093338;28;20035;-81
2022/07/23 02:26:07;;;;;;;12.23;6.67;;;;;;;13.70;97.20;101703.53;5093440;28;20050;-81
2022/07/23 02:28:32;;;;;;;9.30;6.27;;;;;;;13.68;97.40;101692.00;5094210;28;20086;-81
2022/07/23 02:30:58;;;;;;;7.10;6.07;;;;;;;13.64;97.11;101697.06;5095195;28;20093;-81
2022/07/23 02:33:23;;;;;;;7.60;6.20;;;;;;;13.62;97.29;101699.13;5094676;28;20162;-81
2022/07/23 02:35:48;;;;;;;7.43;5.73;;;;;;;13.67;97.49;101698.53;5095864;28;20039;-81
2022/07/23 02:38:14;;;;;;;7.90;5.97;;;;;;;13.58;97.24;101697.88;5064276;28;20032;-83
2022/07/23 02:40:39;;;;;;;8.57;6.23;;;;;;;13.53;97.62;101700.44;5081298;28;20040;-83
2022/07/23 02:43:04;;;;;;;10.17;6.33;;;;;;;13.53;98.12;101705.88;5082018;28;20036;-81
2022/07/23 02:45:30;;;;;;;7.30;6.50;;;;;;;13.51;98.36;101703.34;5062033;28;20467;-82
2022/07/23 02:47:55;;;;;;;8.63;6.30;;;;;;;13.53;98.40;101710.47;5081877;28;20044;-82
2022/07/23 02:50:21;;;;;;;8.93;6.30;;;;;;;13.51;98.28;101707.97;5081345;28;20039;-81
2022/07/23 02:52:46;;;;;;;9.67;7.10;;;;;;;13.44;99.10;101707.97;5081374;28;20043;-81
2022/07/23 02:55:12;;;;;;;8.83;6.20;;;;;;;13.45;98.92;101712.38;5081047;28;20148;-81
2022/07/23 02:57:37;;;;;;;7.63;6.83;;;;;;;13.38;98.59;101724.28;5081077;28;20040;-81
2022/07/23 03:00:05;;;;;;;8.10;6.50;;;;;;;13.28;98.29;101725.50;5080875;28;20097;-81
2022/07/23 03:02:31;;;;;;;8.10;6.90;;;;;;;13.40;98.49;101717.59;5072261;28;20046;-82
2022/07/23 03:04:56;;;;;;;9.67;6.87;;;;;;;13.33;98.44;101711.28;5080537;28;20055;-82
2022/07/23 03:07:21;;;;;;;8.13;6.70;;;;;;;13.24;98.87;101718.81;5080564;28;20043;-82
2022/07/23 03:09:47;;;;;;;8.17;6.57;;;;;;;13.23;98.62;101708.97;5080629;28;20040;-82
2022/07/23 03:12:13;;;;;;;9.40;6.83;;;;;;;13.24;98.64;101724.25;5080797;28;20059;-82
2022/07/23 03:14:38;;;;;;;10.23;7.07;;;;;;;13.21;98.53;101716.50;5080795;28;20076;-82
2022/07/23 03:17:03;;;;;;;9.43;7.20;;;;;;;13.19;98.78;101721.34;5081341;28;20123;-81
2022/07/23 03:19:29;;;;;;;8.50;6.97;;;;;;;13.13;98.50;101722.97;5063278;28;20184;-82
2022/07/23 03:21:54;;;;;;;11.73;6.80;;;;;;;13.21;98.66;101729.28;5081625;28;20147;-82
2022/07/23 03:24:19;;;;;;;7.53;6.60;;;;;;;13.16;98.41;101721.72;5080373;28;20043;-81
2022/07/23 03:26:45;;;;;;;9.07;6.40;;;;;;;13.21;98.52;101729.28;5061464;28;20041;-81
2022/07/23 03:29:11;;;;;;;9.70;6.50;;;;;;;13.18;97.99;101725.09;5073432;28;20044;-82
2022/07/23 03:31:36;;;;;;;10.00;7.00;;;;;;;13.14;98.17;101732.81;5061575;28;20048;-82
2022/07/23 03:34:02;;;;;;;9.53;7.00;;;;;;;13.02;97.95;101714.59;5080914;28;20040;-81
2022/07/23 03:36:28;;;;;;;9.40;6.90;;;;;;;13.04;98.19;101728.81;5079353;28;20413;-82
2022/07/23 03:38:54;;;;;;;8.60;6.57;;;;;;;12.98;98.36;101712.28;5080461;28;20097;-83
2022/07/23 03:41:20;;;;;;;7.30;6.60;;;;;;;13.02;98.14;101722.78;5079652;28;20084;-82
2022/07/23 03:43:45;;;;;;;8.80;7.03;;;;;;;13.03;98.29;101725.28;5079853;28;20028;-83
2022/07/23 03:46:10;;;;;;;9.10;6.80;;;;;;;13.01;98.08;101732.78;5079634;28;20257;-82
2022/07/23 03:48:36;;;;;;;8.40;7.00;;;;;;;12.92;98.25;101718.56;5079703;28;20103;-81
2022/07/23 03:51:01;;;;;;;10.30;7.60;;;;;;;12.90;98.78;101726.06;5062551;28;20367;-82
2022/07/23 03:53:26;;;;;;;9.77;7.70;;;;;;;12.85;98.98;101720.41;5079289;28;20036;-82
2022/07/23 03:55:52;;;;;;;9.67;7.17;;;;;;;12.84;99.03;101729.63;5060360;28;20036;-82
2022/07/23 03:58:17;;;;;;;11.63;8.13;;;;;;;12.82;98.97;101727.13;5079970;28;20066;-83
2022/07/23 04:00:42;;;;;;;10.57;7.83;;;;;;;12.79;99.23;101716.63;5079598;28;20081;-83
2022/07/23 04:03:08;;;;;;;10.30;7.70;;;;;;;12.79;99.59;101723.97;5060415;28;20020;-83
2022/07/23 04:05:33;;;;;;;9.47;7.20;;;;;;;12.82;99.84;101724.41;5079074;28;20396;-82
2022/07/23 04:07:59;;;;;;;11.47;8.07;;;;;;;12.86;99.33;101723.97;5073549;28;20036;-82
2022/07/23 04:10:24;;;;;;;9.47;7.50;;;;;;;12.82;99.40;101731.69;5079253;28;20048;-82
2022/07/23 04:12:49;;;;;;;10.90;7.30;;;;;;;12.84;99.31;101735.91;5079954;28;20150;-83
2022/07/23 04:15:15;;;;;;;9.57;7.37;;;;;;;12.81;99.52;101736.31;5079077;28;20621;-82
2022/07/23 04:17:40;;;;;;;9.63;7.50;;;;;;;12.79;99.85;101743.00;5079316;28;20044;-82
2022/07/23 04:20:06;;;;;;;11.13;7.80;;;;;;;12.73;100.00;101731.06;5079391;28;20081;-81
2022/07/23 04:22:32;;;;;;;10.20;7.97;;;;;;;12.82;100.00;101735.28;5079727;28;20036;-83
2022/07/23 04:24:57;;;;;;;9.43;7.63;;;;;;;12.81;100.00;101746.34;5079772;28;20123;-83
2022/07/23 04:27:22;;;;;;;10.67;8.23;;;;;;;12.79;100.00;101743.81;5079597;28;20476;-81
2022/07/23 04:29:47;;;;;;;13.87;9.30;;;;;;;12.76;100.00;101744.25;5079641;28;20031;-82
2022/07/23 04:32:13;;;;;;;12.17;8.73;;;;;;;12.71;100.00;101738.56;5079221;28;20028;-83
2022/07/23 04:34:38;;;;;;;11.97;9.20;;;;;;;12.70;100.00;101753.22;5079692;28;20047;-84
2022/07/23 04:37:03;;;;;;;13.27;9.73;;;;;;;12.74;100.00;101742.75;5077805;28;20353;-83
2022/07/23 04:39:29;;;;;;;14.90;10.20;;;;;;;12.81;100.00;101746.34;5060876;28;20510;-82
2022/07/23 04:41:54;;;;;;;13.60;10.40;;;;;;;12.81;100.00;101749.91;5078603;28;20033;-81
2022/07/23 04:44:20;;;;;;;14.77;10.63;;;;;;;12.93;100.00;101754.75;5079404;28;20468;-82
2022/07/23 04:46:45;;;;;;;12.50;9.57;;;;;;;12.97;100.00;101751.44;5079402;28;20051;-81
2022/07/23 04:49:10;;;;;;;15.10;10.80;;;;;;;12.93;100.00;101743.88;5079822;28;20039;-81
2022/07/23 04:51:39;;;;;;;14.83;10.43;;;;;;;13.00;100.00;101756.44;5060164;28;20040;-82
2022/07/23 04:54:04;;;;;;;12.10;10.47;;;;;;;13.04;100.00;101762.31;5060870;28;20057;-82
2022/07/23 04:56:29;;;;;;;14.40;11.10;;;;;;;13.05;100.00;101761.25;5060871;28;20642;-83
2022/07/23 04:58:55;;;;;;;14.93;11.00;;;;;;;13.03;100.00;101759.78;5079550;28;20035;-83
2022/07/23 05:01:21;;;;;;;15.13;11.53;;;;;;;13.10;100.00;101769.66;5060728;28;20165;-84
2022/07/23 05:03:48;;;;;;;16.17;12.03;;;;;;;13.17;100.00;101766.94;5078190;28;20151;-82
2022/07/23 05:06:15;;;;;;;15.13;11.50;;;;;;;13.25;100.00;101768.63;5078955;28;20028;-83
2022/07/23 05:08:40;;;;;;;16.93;12.53;;;;;;;13.32;100.00;101764.88;5078424;28;20676;-81
2022/07/23 05:11:05;;;;;;;18.03;12.60;;;;;;;13.31;100.00;101765.06;5078879;28;20036;-82
2022/07/23 05:13:31;;;;;;;18.57;13.10;;;;;;;13.31;100.00;101768.66;5078190;28;20059;-81
2022/07/23 05:15:56;;;;;;;17.13;12.53;;;;;;;13.38;100.00;101767.84;5077833;28;20127;-82
2022/07/23 05:18:21;;;;;;;17.37;12.60;;;;;;;13.48;100.00;101771.00;5078346;28;20170;-81
2022/07/23 05:20:47;;;;;;;16.73;13.10;;;;;;;13.54;100.00;101775.59;5079022;28;20040;-82
2022/07/23 05:23:12;;;;;;;20.93;13.30;;;;;;;13.62;100.00;101775.38;5060017;28;20457;-81
2022/07/23 05:25:37;;;;;;;17.53;13.37;;;;;;;13.71;100.00;101773.31;5077723;28;20119;-81
2022/07/23 05:28:03;;;;;;;19.60;13.40;;;;;;;13.65;100.00;101783.16;5077404;28;20080;-81
2022/07/23 05:30:29;;;;;;;17.03;13.33;;;;;;;13.62;100.00;101780.00;5076760;28;20039;-82
2022/07/23 05:32:54;;;;;;;17.80;13.43;;;;;;;13.61;100.00;101762.84;5078612;28;20053;-82
2022/07/23 05:35:19;;;;;;;18.47;14.27;;;;;;;13.72;100.00;101790.47;5077263;28;20336;-81
2022/07/23 05:37:45;;;;;;;20.13;13.90;;;;;;;13.80;100.00;101798.44;5078191;28;20036;-82
2022/07/23 05:40:11;;;;;;;16.90;13.37;;;;;;;13.88;100.00;101790.03;5079238;28;20466;-81
2022/07/23 05:42:37;;;;;;;19.37;13.77;;;;;;;13.95;100.00;101796.34;5077043;28;20581;-81
2022/07/23 05:45:03;;;;;;;18.93;12.77;;;;;;;14.01;100.00;101795.47;5079014;28;20376;-82
2022/07/23 05:47:38;;;;;;;19.93;13.97;;;;;;;14.11;100.00;101786.88;5076616;28;20126;-82
2022/07/23 05:50:03;;;;;;;19.53;13.80;;;;;;;14.13;100.00;101792.09;5078313;28;20028;-84
2022/07/23 05:52:29;;;;;;;17.77;13.10;;;;;;;14.19;100.00;101794.00;5077938;28;20089;-81
2022/07/23 05:54:54;;;;;;;21.47;15.00;;;;;;;14.35;100.00;101807.16;5078860;28;20036;-81
2022/07/23 05:57:20;;;;;;;17.77;14.43;;;;;;;14.41;100.00;101804.63;5077945;28;20040;-83
2022/07/23 05:59:45;;;;;;;18.07;13.60;;;;;;;14.50;100.00;101803.34;5078158;28;20453;-83
2022/07/23 06:02:10;;;;;;;17.80;13.40;;;;;;;14.67;100.00;101799.13;5059889;28;20180;-82
2022/07/23 06:04:36;;;;;;;16.77;13.43;;;;;;;14.75;100.00;101805.41;5082412;28;20339;-82
2022/07/23 06:07:01;;;;;;;16.70;13.60;;;;;;;14.92;100.00;101812.03;5076148;28;20055;-83
2022/07/23 06:09:26;;;;;;;16.20;13.10;;;;;;;15.06;100.00;101806.50;5081664;28;20486;-84
2022/07/23 06:11:52;;;;;;;18.40;13.57;;;;;;;15.14;100.00;101795.34;5081425;28;20032;-82
2022/07/23 06:14:17;;;;;;;17.93;13.70;;;;;;;15.28;100.00;101805.09;5082829;28;20473;-83
2022/07/23 06:16:42;;;;;;;17.23;13.70;;;;;;;15.34;100.00;101819.78;5081372;28;20468;-82
2022/07/23 06:19:08;;;;;;;16.90;12.77;;;;;;;15.50;100.00;101818.41;5080184;28;20490;-83
2022/07/23 06:21:33;;;;;;;16.60;12.13;;;;;;;15.58;98.71;101820.84;5081287;28;20055;-83
2022/07/23 06:23:58;;;;;;;17.97;12.53;;;;;;;15.64;98.88;101817.25;5063372;28;20038;-83
2022/07/23 06:26:24;;;;;;;17.40;11.97;;;;;;;15.76;98.25;101814.66;5063301;28;20102;-83
2022/07/23 06:28:49;;;;;;;15.07;11.03;;;;;;;15.85;96.99;101816.03;5074675;28;20044;-83
2022/07/23 06:31:15;;;;;;;16.90;10.77;;;;;;;15.90;95.74;101817.28;5081926;28;20040;-84
2022/07/23 06:33:40;;;;;;;15.00;10.90;;;;;;;16.04;95.44;101825.13;5080910;28;20074;-84
2022/07/23 06:36:05;;;;;;;15.00;10.80;;;;;;;16.01;94.70;101825.59;5081890;28;20582;-82
2022/07/23 06:38:31;;;;;;;12.63;10.60;;;;;;;16.06;93.91;101824.06;5082143;28;20539;-85
2022/07/23 06:40:56;;;;;;;15.63;11.10;;;;;;;16.21;93.91;101816.38;5092768;28;20050;-82
2022/07/23 06:43:21;;;;;;;16.33;11.07;;;;;;;16.37;93.00;101821.25;5094058;28;20020;-82
2022/07/23 06:45:47;;;;;;;14.50;10.97;;;;;;;16.54;92.56;101820.66;5095821;28;20097;-83
2022/07/23 06:48:12;;;;;;;15.03;10.40;;;;;;;16.77;91.01;101838.25;5076804;28;20024;-83
2022/07/23 06:50:37;;;;;;;14.73;10.33;;;;;;;16.77;89.50;101830.03;5095553;28;20032;-84
2022/07/23 06:53:03;;;;;;;12.70;9.70;;;;;;;16.97;89.28;101838.03;5094164;28;20028;-83
2022/07/23 06:55:28;;;;;;;12.53;8.50;;;;;;;17.12;88.67;101826.69;5087389;28;20282;-83
2022/07/23 06:57:54;;;;;;;12.60;9.03;;;;;;;17.25;88.47;101834.72;5068269;28;20020;-83
2022/07/23 07:00:19;;;;;;;13.47;7.13;;;;;;;17.31;86.34;101835.69;5108641;28;20035;-84
2022/07/23 07:02:44;;;;;;;14.10;7.60;;;;;;;17.30;85.43;101832.13;5104662;28;20023;-84
2022/07/23 07:05:10;;;;;;;12.07;6.90;;;;;;;17.40;85.31;101836.19;5094242;28;20426;-83
2022/07/23 07:07:35;;;;;;;8.93;6.60;;;;;;;17.47;85.65;101837.75;5092735;28;20020;-83
2022/07/23 07:10:03;;;;;;;12.03;6.23;;;;;;;17.72;84.33;101832.09;5101137;28;20069;-85
2022/07/23 07:12:28;;;;;;;10.07;6.37;;;;;;;17.87;81.98;101841.78;5075651;28;20371;-85
2022/07/23 07:14:54;;;;;;;12.57;7.00;;;;;;;17.93;82.04;101835.38;5092552;28;20040;-83
2022/07/23 07:17:19;;;;;;;9.50;6.63;;;;;;;17.94;82.23;101833.44;5090889;28;20032;-87
2022/07/23 07:19:44;;;;;;;9.97;6.40;;;;;;;18.03;81.59;101841.13;5080606;28;20035;-84
2022/07/23 07:22:10;;;;;;;7.57;5.80;;;;;;;17.89;80.03;101836.88;5074746;28;20040;-85
2022/07/23 07:24:35;;;;;;;9.73;6.17;;;;;;;18.09;79.71;101830.25;5080098;28;20490;-84
2022/07/23 07:27:01;;;;;;;10.27;6.70;;;;;;;18.27;79.10;101827.38;5080113;28;20032;-85
2022/07/23 07:29:27;;;;;;;8.18;5.90;;;;;;;18.32;78.74;101819.28;5080001;28;20190;-84
2022/07/23 07:31:52;;;;;;;7.43;5.87;;;;;;;18.51;79.35;101824.63;5080139;28;20039;-86
2022/07/23 07:34:17;;;;;;;10.07;5.97;;;;;;;18.55;76.24;101828.56;5079435;28;20036;-84
2022/07/23 07:36:43;;;;;;;8.60;5.60;;;;;;;18.74;77.21;101831.97;5080138;28;20039;-84
2022/07/23 07:39:10;;;;;;;7.40;5.82;;;;;;;18.85;76.63;101849.50;5079446;28;20032;-83
2022/07/23 07:41:36;;;;;;;9.23;6.00;;;;;;;19.02;75.77;101841.34;5080164;28;20044;-86
2022/07/23 07:44:01;;;;;;;6.72;5.72;;;;;;;19.00;75.74;101855.31;5080335;28;20356;-84
2022/07/23 07:46:27;;;;;;;9.15;5.25;;;;;;;19.00;73.12;101855.31;5080470;28;20109;-84
2022/07/23 07:48:53;;;;;;;7.05;4.82;;;;;;;18.93;70.59;101853.78;5079736;28;20036;-84
2022/07/23 07:51:18;;;;;;;6.85;5.00;;;;;;;18.96;70.89;101853.28;5079576;28;20028;-84
2022/07/23 07:53:44;;;;;;;8.77;5.53;;;;;;;18.97;72.13;101850.31;5057338;28;20032;-83
2022/07/23 07:56:09;;;;;;;6.85;5.40;;;;;;;19.14;71.34;101844.06;5043720;28;20206;-85
2022/07/23 07:58:35;;;;;;;7.80;5.28;;;;;;;19.18;71.62;101846.06;5074135;28;20570;-83
2022/07/23 08:01:02;;;;;;;13.18;5.53;;;;;;;19.39;71.50;101841.78;5080020;28;20150;-86
2022/07/23 08:03:27;;;;;;;7.35;4.90;;;;;;;19.46;70.49;101852.63;5079526;28;20047;-86
2022/07/23 08:05:52;;;;;;;7.45;5.30;;;;;;;19.60;70.08;101853.13;5079875;28;20048;-83
2022/07/23 08:08:18;;;;;;;8.25;5.05;;;;;;;19.67;69.94;101842.81;5079584;28;20476;-85
2022/07/23 08:10:43;;;;;;;8.93;5.53;;;;;;;19.71;68.43;101854.16;5079636;28;20031;-83
2022/07/23 08:13:14;;;;;;;11.48;5.82;;;;;;;19.69;69.19;101859.91;5050350;28;20181;-83
2022/07/23 08:15:39;;;;;;;10.13;5.25;;;;;;;19.68;68.57;101854.66;5062934;28;20031;-83
2022/07/23 08:18:05;;;;;;;8.18;5.10;;;;;;;19.64;70.56;101850.75;5071825;28;20036;-85
2022/07/23 08:20:30;;;;;;;7.50;5.05;;;;;;;19.88;69.65;101859.66;5084223;28;20032;-83
2022/07/23 08:22:58;;;;;;;8.45;5.80;;;;;;;20.05;71.30;101857.75;5093806;28;20030;-83
2022/07/23 08:25:29;;;;;;;8.35;5.63;;;;;;;20.15;69.04;101853.50;5094664;28;20028;-84
2022/07/23 08:27:56;;;;;;;7.07;5.35;;;;;;;20.24;68.78;101868.50;5094389;28;20425;-83
2022/07/23 08:30:22;;;;;;;7.90;5.10;;;;;;;20.40;67.32;101866.81;5094578;28;20028;-84
2022/07/23 08:33:13;;;;;;;8.52;5.35;;;;;;;20.72;67.97;101869.75;5094206;28;20490;-86
2022/07/23 08:35:42;;;;;;;7.80;5.63;;;;;;;20.68;66.40;101867.72;5094627;28;20077;-82
2022/07/23 08:38:09;;;;;;;7.28;5.50;;;;;;;20.88;64.78;101875.47;5084768;28;20398;-85
2022/07/23 08:40:44;;;;;;;9.25;5.50;;;;;;;20.94;64.51;101866.16;5081965;28;20048;-82
2022/07/23 08:43:12;;;;;;;8.30;5.18;;;;;;;21.53;60.79;101878.44;5081707;28;20036;-83
2022/07/23 08:45:40;;;;;;;6.97;5.20;;;;;;;21.61;63.64;101877.09;5078568;28;20597;-82
2022/07/23 08:48:11;;;;;;;6.20;5.00;;;;;;;22.07;61.56;101891.28;5096480;28;20475;-82
2022/07/23 08:50:37;;;;;;;6.82;4.70;;;;;;;22.27;60.05;101887.84;5094888;28;20034;-85
2022/07/23 08:53:05;;;;;;;7.55;5.13;;;;;;;22.06;60.53;101882.19;5092109;28;20020;-84
2022/07/23 08:55:31;;;;;;;6.60;4.43;;;;;;;21.96;60.87;101898.66;5061947;28;20035;-83
2022/07/23 08:57:56;;;;;;;9.10;5.63;;;;;;;22.30;58.00;101890.06;5089517;28;20093;-82
2022/07/23 09:00:22;;;;;;;8.88;4.88;;;;;;;22.38;56.68;101886.84;5095784;28;20044;-83
2022/07/23 09:02:48;;;;;;;6.03;5.00;;;;;;;22.73;60.74;101890.91;5103604;28;20036;-82
2022/07/23 09:05:15;;;;;;;9.27;4.93;;;;;;;23.25;57.66;101892.00;5079870;28;20040;-84
2022/07/23 09:08:13;;;;;;;8.48;5.45;;;;;;;23.34;58.91;101888.69;5070824;28;20027;-82
2022/07/23 09:10:48;;;;;;;7.85;5.07;;;;;;;23.63;57.06;101891.75;5084018;28;20020;-86
2022/07/23 09:13:35;;;;;;;6.80;5.05;;;;;;;23.37;55.43;101888.97;5089882;28;20064;-85
2022/07/23 09:16:24;;;;;;;9.02;4.95;;;;;;;23.93;56.62;101887.38;5079172;28;20032;-86
2022/07/23 09:19:08;;;;;;;9.25;5.35;;;;;;;24.40;56.57;101883.47;5078741;28;20043;-85
2022/07/23 09:21:38;;;;;;;7.95;5.32;;;;;;;24.66;52.92;101883.41;5082186;28;20047;-82
2022/07/23 09:24:09;;;;;;;5.88;5.15;;;;;;;24.77;52.84;101882.25;5085685;28;20024;-82
2022/07/23 09:26:39;;;;;;;8.50;5.07;;;;;;;25.25;53.70;101876.22;5082733;28;20031;-82
2022/07/23 09:29:22;;;;;;;8.27;5.32;;;;;;;25.48;52.08;101867.50;5065932;28;20040;-82
2022/07/23 09:31:53;;;;;;;6.72;5.03;;;;;;;25.55;50.82;101871.59;5082048;28;20123;-85
2022/07/23 09:34:24;;;;;;;6.20;5.30;;;;;;;25.36;49.15;101873.41;5093065;28;20051;-85
2022/07/23 09:36:53;;;;;;;6.35;5.18;;;;;;;25.82;47.41;101873.06;5075452;28;20463;-82
2022/07/23 09:39:32;;;;;;;6.93;5.30;;;;;;;25.85;49.46;101872.47;5075567;28;20024;-82
2022/07/23 09:42:14;;;;;;;8.32;5.30;;;;;;;26.04;50.84;101875.38;5074926;28;20034;-83
2022/07/23 09:44:53;;;;;;;8.07;5.38;;;;;;;26.16;48.00;101868.63;5090629;28;20111;-83
2022/07/23 09:47:20;;;;;;;7.13;5.28;;;;;;;26.19;47.76;101879.13;5085968;28;20032;-82
2022/07/23 09:50:00;;;;;;;6.00;5.18;;;;;;;26.69;48.71;101882.47;5059281;28;20052;-82
2022/07/23 09:52:31;;;;;;;6.25;4.72;;;;;;;26.95;46.06;101884.97;5087247;28;20988;-82
2022/07/23 09:54:59;;;;;;;7.15;5.03;;;;;;;26.67;45.86;101887.53;5091891;28;20032;-82
2022/07/23 09:57:26;;;;;;;6.70;4.82;;;;;;;27.17;43.76;101892.72;5088554;28;20027;-83
2022/07/23 09:59:52;;;;;;;7.75;4.95;;;;;;;26.52;46.47;101884.91;5090412;28;20028;-82
2022/07/23 10:02:18;;;;;;;5.95;4.93;;;;;;;26.41;44.41;101893.38;5052162;28;20464;-82
2022/07/23 10:04:43;;;;;;;7.90;5.53;;;;;;;26.00;47.31;101896.50;5086691;28;20086;-86
2022/07/23 10:07:10;;;;;;;8.05;6.10;;;;;;;25.92;48.79;101888.78;5087675;28;20122;-82
2022/07/23 10:09:39;;;;;;;7.68;5.50;;;;;;;25.64;45.85;101884.88;5095665;28;20551;-81
2022/07/23 10:15:01;;;;;;;7.85;6.05;;;;;;;25.55;47.42;101881.88;5062308;28;20690;-87
2022/07/23 10:17:30;;;;;;;7.90;6.10;;;;;;;25.73;46.88;101874.78;5076290;28;20093;-85
2022/07/23 10:19:56;;;;;;;11.10;6.15;;;;;;;25.90;46.56;101880.75;5077331;28;20043;-84
2022/07/23 10:22:32;;;;;;;8.43;5.60;;;;;;;26.13;47.53;101883.91;5076588;28;20032;-85
2022/07/23 10:25:18;;;;;;;7.32;5.55;;;;;;;26.66;48.66;101874.72;5076637;28;20032;-84
2022/07/23 10:28:03;;;;;;;8.85;5.57;;;;;;;26.76;46.32;101879.38;5076097;28;20039;-83
2022/07/23 10:30:49;;;;;;;8.02;4.90;;;;;;;27.00;44.78;101884.09;5078841;28;20055;-86
2022/07/23 10:33:20;;;;;;;7.32;5.50;;;;;;;26.95;46.20;101874.69;5079964;28;20032;-85
2022/07/23 10:36:03;;;;;;;8.25;5.35;;;;;;;26.86;44.97;101881.19;5076955;28;20054;-84
2022/07/23 10:38:50;;;;;;;7.25;5.13;;;;;;;26.99;46.06;101871.31;5058523;28;20036;-85
2022/07/23 10:41:31;;;;;;;8.73;5.18;;;;;;;26.87;47.05;101874.50;5077584;28;20051;-84
2022/07/23 10:44:06;;;;;;;6.90;4.80;;;;;;;26.82;47.38;101889.31;5062326;28;20436;-84
2022/07/23 10:49:25;;;;;;;7.93;4.90;;;;;;;27.37;45.27;101890.81;5080583;28;20048;-84
2022/07/23 10:52:23;;;;;;;5.68;4.70;;;;;;;27.40;43.69;101888.28;5081647;28;20031;-83
2022/07/23 10:54:52;;;;;;;6.43;5.00;;;;;;;27.23;44.66;101872.06;5080720;28;20418;-84
2022/07/23 10:57:23;;;;;;;5.60;4.40;;;;;;;27.00;43.43;101879.34;5063373;28;20472;-83
2022/07/23 11:00:01;;;;;;;5.28;4.55;;;;;;;27.15;44.60;101880.28;5080335;28;20100;-84
2022/07/23 11:02:29;;;;;;;7.72;4.85;;;;;;;26.82;44.91;101880.97;5081063;28;20043;-85
2022/07/23 11:05:00;;;;;;;4.93;4.43;;;;;;;27.25;45.51;101885.66;5078814;28;20051;-82
2022/07/23 11:07:25;;;;;;;6.57;5.07;;;;;;;27.12;41.44;101887.25;5062571;28;20032;-85
2022/07/23 11:09:51;;;;;;;5.07;3.90;;;;;;;26.94;42.24;101875.81;5080143;28;20532;-83
2022/07/23 11:12:19;;;;;;;6.05;4.18;;;;;;;26.83;42.80;101885.38;5081398;28;21401;-84
2022/07/23 11:15:03;;;;;;;4.05;3.40;;;;;;;27.81;44.92;101881.19;5062368;28;20438;-85
2022/07/23 11:17:30;;;;;;;4.18;3.55;;;;;;;27.67;44.71;101892.28;5081054;28;20046;-84
2022/07/23 11:20:15;;;;;;;4.60;3.80;;;;;;;28.11;44.66;101882.69;5080426;28;20036;-86
2022/07/23 11:22:43;;;;;;;4.13;3.72;;;;;;;28.01;42.80;101882.84;5080290;28;20020;-84
2022/07/23 11:25:21;;;;;;;4.25;3.67;;;;;;;27.91;42.96;101883.00;5079166;28;20039;-84
2022/07/23 11:27:47;;;;;;;5.18;3.88;;;;;;;27.61;42.58;101874.84;5080962;28;20047;-85